KAXV/AXV METAR and TAF weather

Enter ICAO airport designator
Station Type Date Time Source
KAXV METAR 2019/10/21 22:56 UTC NOAA

KAXV 212256Z AUTO 17011KT 10SM -RA SCT045 BKN060 BKN100 18/15 A2967 RMK AO2


Station Type Date Time Source
KAXV Decoded METAR 2019/10/21 22:56 UTC NOAA

Station name not available
Oct 21, 2019 - 06:56 PM EDT / 2019.10.21 2256 UTC
Wind: from the S (170 degrees) at 13 MPH (11 KT):0
Visibility: 10 mile(s):0
Sky conditions: mostly cloudy
Weather: light rain
Temperature: 64 F (18 C)
Dew Point: 59 F (15 C)
Relative Humidity: 82%
Pressure (altimeter): 29.67 in. Hg (1004 hPa)
ob: KAXV 212256Z AUTO 17011KT 10SM -RA SCT045 BKN060 BKN100 18/15 A2967 RMK AO2
cycle: 23

Station Type Date Time Source
KAXV TAF UTC NOAA

Error!

Example: see airport list